createdAt,value
2023-02-28T00:00:11.376Z,0.70
2023-02-28T00:00:47.938Z,0.67
2023-02-28T00:01:19.454Z,0.68
2023-02-28T00:01:52.860Z,0.69
2023-02-28T00:02:24.616Z,0.71
2023-02-28T00:02:56.168Z,0.73
2023-02-28T00:03:27.696Z,0.71
2023-02-28T00:04:01.528Z,0.73
2023-02-28T00:04:35.070Z,0.75
2023-02-28T00:05:10.832Z,0.71
2023-02-28T00:05:43.760Z,0.76
2023-02-28T00:06:15.434Z,0.69
2023-02-28T00:06:46.935Z,0.75
2023-02-28T00:07:18.354Z,0.76
2023-02-28T00:07:50.636Z,0.76
2023-02-28T00:08:22.065Z,0.76
2023-02-28T00:08:53.676Z,0.75
2023-02-28T00:09:28.150Z,0.72
2023-02-28T00:10:01.520Z,0.76
2023-02-28T00:10:33.011Z,0.77
2023-02-28T00:11:07.210Z,0.74
2023-02-28T00:11:38.891Z,0.75
2023-02-28T00:12:13.966Z,0.74
2023-02-28T00:12:45.722Z,0.80
2023-02-28T00:13:17.582Z,0.79
2023-02-28T00:13:49.333Z,0.80
2023-02-28T00:14:20.849Z,0.77
2023-02-28T00:14:52.431Z,0.78
2023-02-28T00:15:24.977Z,0.76
2023-02-28T00:16:08.434Z,0.76
2023-02-28T00:16:39.922Z,0.74
2023-02-28T00:17:11.410Z,0.78
2023-02-28T00:17:42.991Z,0.77
2023-02-28T00:18:16.408Z,0.74
2023-02-28T00:18:51.288Z,0.77
2023-02-28T00:19:22.762Z,0.76
2023-02-28T00:19:54.154Z,0.79
2023-02-28T00:20:26.060Z,0.77
2023-02-28T00:20:58.766Z,0.75
2023-02-28T00:21:33.198Z,0.82
2023-02-28T00:22:07.524Z,0.81
2023-02-28T00:22:41.794Z,0.84
2023-02-28T00:23:13.316Z,0.83
2023-02-28T00:23:44.946Z,0.84
2023-02-28T00:24:16.444Z,0.81
2023-02-28T00:24:48.364Z,0.86
2023-02-28T00:25:27.088Z,0.86
2023-02-28T00:25:58.585Z,0.86
2023-02-28T00:26:30.234Z,0.86
2023-02-28T00:27:01.680Z,0.85
2023-02-28T00:27:33.233Z,0.87
2023-02-28T00:28:04.806Z,0.86
2023-02-28T00:28:36.209Z,0.86
2023-02-28T00:29:07.568Z,0.89
2023-02-28T00:29:38.996Z,0.86
2023-02-28T00:30:16.410Z,0.87
2023-02-28T00:30:47.996Z,0.88
2023-02-28T00:31:21.192Z,0.88
2023-02-28T00:31:54.195Z,0.86
2023-02-28T00:32:27.132Z,0.86
2023-02-28T00:32:58.598Z,0.91
2023-02-28T00:33:30.349Z,0.87
2023-02-28T00:34:04.068Z,0.92
2023-02-28T00:34:38.752Z,0.90
2023-02-28T00:35:12.366Z,0.92
2023-02-28T00:35:47.461Z,0.89
2023-02-28T00:36:18.941Z,0.93
2023-02-28T00:36:50.382Z,0.90
2023-02-28T00:37:21.834Z,0.90
2023-02-28T00:37:53.392Z,0.90
2023-02-28T00:38:27.729Z,0.93
2023-02-28T00:38:59.180Z,0.94
2023-02-28T00:39:30.631Z,0.91
2023-02-28T00:40:05.679Z,0.95
2023-02-28T00:40:37.354Z,0.98
2023-02-28T00:41:11.583Z,0.92
2023-02-28T00:41:43.199Z,0.95
2023-02-28T00:42:16.837Z,0.92
2023-02-28T00:42:48.482Z,0.97
2023-02-28T00:43:21.421Z,1.00
2023-02-28T00:43:53.946Z,0.99
2023-02-28T00:44:25.421Z,0.97
2023-02-28T00:44:56.901Z,0.97
2023-02-28T00:45:28.325Z,0.95
2023-02-28T00:46:00.702Z,1.00
2023-02-28T00:46:32.208Z,1.03
2023-02-28T00:47:06.492Z,1.02
2023-02-28T00:47:37.931Z,1.00
2023-02-28T00:48:14.435Z,1.00
2023-02-28T00:48:46.154Z,1.03
2023-02-28T00:49:17.881Z,1.01
2023-02-28T00:49:49.354Z,1.06
2023-02-28T00:50:23.476Z,1.00
2023-02-28T00:50:57.493Z,1.04
2023-02-28T00:51:33.337Z,1.07
2023-02-28T00:52:05.032Z,1.04
2023-02-28T00:52:37.815Z,1.04
2023-02-28T00:53:10.528Z,1.01
2023-02-28T00:53:44.480Z,1.04
2023-02-28T00:54:16.740Z,1.02
2023-02-28T00:54:50.914Z,1.06
2023-02-28T00:55:31.275Z,1.08
2023-02-28T00:56:03.952Z,1.04
2023-02-28T00:56:35.466Z,1.07
2023-02-28T00:57:08.884Z,1.06
2023-02-28T00:57:44.559Z,1.10
2023-02-28T00:58:16.165Z,1.10
2023-02-28T00:58:47.848Z,1.12
2023-02-28T00:59:19.633Z,1.14
2023-02-28T00:59:51.095Z,1.14
2023-02-28T01:00:27.934Z,1.13
2023-02-28T01:00:59.441Z,1.14
2023-02-28T01:01:31.368Z,1.13
2023-02-28T01:02:06.106Z,1.17
2023-02-28T01:02:39.847Z,1.15
2023-02-28T01:03:11.326Z,1.16
2023-02-28T01:03:45.295Z,1.14
2023-02-28T01:04:17.171Z,1.17
2023-02-28T01:04:48.753Z,1.13
2023-02-28T01:05:20.231Z,1.15
2023-02-28T01:05:55.407Z,1.12
2023-02-28T01:06:27.903Z,1.16
2023-02-28T01:06:59.424Z,1.16
2023-02-28T01:07:33.562Z,1.18
2023-02-28T01:08:05.426Z,1.17
2023-02-28T01:08:36.970Z,1.16
2023-02-28T01:09:09.011Z,1.18
2023-02-28T01:09:43.400Z,1.17
2023-02-28T01:10:14.920Z,1.19
2023-02-28T01:10:48.939Z,1.16
2023-02-28T01:11:23.087Z,1.20
2023-02-28T01:11:54.570Z,1.15
2023-02-28T01:12:26.086Z,1.17
2023-02-28T01:12:58.997Z,1.21
2023-02-28T01:13:32.294Z,1.22
2023-02-28T01:14:09.416Z,1.23
2023-02-28T01:14:43.874Z,1.25
2023-02-28T01:15:15.319Z,1.21
2023-02-28T01:15:51.692Z,1.20
2023-02-28T01:16:26.626Z,1.21
2023-02-28T01:17:01.547Z,1.21
2023-02-28T01:17:35.471Z,1.27
2023-02-28T01:18:06.879Z,1.24
2023-02-28T01:18:39.329Z,1.26
2023-02-28T01:19:15.034Z,1.24
2023-02-28T01:19:49.528Z,1.23
2023-02-28T01:20:23.541Z,1.21
2023-02-28T01:20:55.603Z,1.27
2023-02-28T01:21:27.476Z,1.23
2023-02-28T01:22:02.736Z,1.30
2023-02-28T01:22:39.765Z,1.28
2023-02-28T01:23:11.202Z,1.29
2023-02-28T01:23:43.386Z,1.26
2023-02-28T01:24:15.108Z,1.28
2023-02-28T01:24:48.362Z,1.26
2023-02-28T01:25:19.986Z,1.25
2023-02-28T01:25:52.954Z,1.29
2023-02-28T01:26:27.444Z,1.26
2023-02-28T01:27:00.192Z,1.30
2023-02-28T01:27:31.641Z,1.28
2023-02-28T01:28:05.386Z,1.27
2023-02-28T01:28:40.854Z,1.30
2023-02-28T01:29:14.658Z,1.30
2023-02-28T01:29:47.849Z,1.32
2023-02-28T01:30:19.298Z,1.30
2023-02-28T01:30:53.569Z,1.31
2023-02-28T01:31:25.564Z,1.30
2023-02-28T01:31:58.053Z,1.34
2023-02-28T01:32:32.439Z,1.31
2023-02-28T01:33:06.541Z,1.37
2023-02-28T01:33:39.149Z,1.35
2023-02-28T01:34:10.781Z,1.36
2023-02-28T01:34:42.355Z,1.37
2023-02-28T01:35:13.873Z,1.35
2023-02-28T01:35:45.354Z,1.34
2023-02-28T01:36:29.345Z,1.40
2023-02-28T01:37:00.799Z,1.36
2023-02-28T01:37:32.315Z,1.41
2023-02-28T01:38:20.866Z,1.38
2023-02-28T01:38:53.693Z,1.41
2023-02-28T01:39:26.188Z,1.36
2023-02-28T01:39:59.052Z,1.38
2023-02-28T01:40:30.557Z,1.38
2023-02-28T01:41:02.292Z,1.41
2023-02-28T01:41:35.330Z,1.41
2023-02-28T01:42:10.810Z,1.43
2023-02-28T01:42:45.420Z,1.42
2023-02-28T01:43:29.004Z,1.44
2023-02-28T01:44:06.827Z,1.38
2023-02-28T01:44:59.793Z,1.45
2023-02-28T01:45:32.622Z,1.44
2023-02-28T01:46:06.098Z,1.42
2023-02-28T01:46:39.766Z,1.42
2023-02-28T01:47:11.483Z,1.39
2023-02-28T01:47:44.649Z,1.41
2023-02-28T01:48:16.620Z,1.44
2023-02-28T01:48:59.609Z,1.44
2023-02-28T01:49:33.596Z,1.44
2023-02-28T01:50:10.576Z,1.43
2023-02-28T01:50:46.170Z,1.43
2023-02-28T01:51:35.218Z,1.41
2023-02-28T01:52:08.237Z,1.38
2023-02-28T01:52:40.039Z,1.42
2023-02-28T01:53:26.113Z,1.43
2023-02-28T01:54:02.548Z,1.37
2023-02-28T01:54:35.840Z,1.36
2023-02-28T01:55:09.208Z,1.42
2023-02-28T01:55:42.786Z,1.37
2023-02-28T01:56:21.370Z,1.37
2023-02-28T01:57:00.826Z,1.44
2023-02-28T01:57:38.729Z,1.42
2023-02-28T01:58:10.222Z,1.45
2023-02-28T01:58:41.724Z,1.41
2023-02-28T01:59:30.675Z,1.44
2023-02-28T02:00:10.292Z,1.45
2023-02-28T02:00:43.530Z,1.43
2023-02-28T02:01:22.395Z,1.43
2023-02-28T02:01:55.304Z,1.45
2023-02-28T02:02:28.566Z,1.45
2023-02-28T02:03:08.572Z,1.46
2023-02-28T02:03:40.334Z,1.46
2023-02-28T02:04:11.941Z,1.43
2023-02-28T02:05:04.836Z,1.45
2023-02-28T02:05:39.252Z,1.43
2023-02-28T02:06:10.657Z,1.43
2023-02-28T02:06:47.904Z,1.42
2023-02-28T02:07:25.835Z,1.43
2023-02-28T02:08:02.133Z,1.41
2023-02-28T02:08:33.846Z,1.44
2023-02-28T02:09:08.238Z,1.44
2023-02-28T02:09:39.660Z,1.47
2023-02-28T02:10:20.760Z,1.48
2023-02-28T02:10:59.820Z,1.41
2023-02-28T02:11:31.980Z,1.45
2023-02-28T02:12:22.959Z,1.46
2023-02-28T02:13:14.545Z,1.45
2023-02-28T02:14:04.751Z,1.49
2023-02-28T02:15:01.828Z,1.48
2023-02-28T02:15:43.097Z,1.46
2023-02-28T02:16:25.980Z,1.47
2023-02-28T02:17:15.872Z,1.48
2023-02-28T02:17:51.764Z,1.44
2023-02-28T02:18:45.955Z,1.48
2023-02-28T02:19:26.497Z,1.47
2023-02-28T02:20:36.002Z,1.41
2023-02-28T02:21:38.224Z,1.45
2023-02-28T02:22:21.367Z,1.45
2023-02-28T02:23:17.546Z,1.45
2023-02-28T02:24:26.234Z,1.47
2023-02-28T02:25:09.371Z,1.46
2023-02-28T02:26:02.645Z,1.47
2023-02-28T02:26:36.754Z,1.47
2023-02-28T02:27:26.726Z,1.47
2023-02-28T02:28:23.857Z,1.46
2023-02-28T02:29:43.194Z,1.47
2023-02-28T02:30:39.248Z,1.47
2023-02-28T02:31:29.709Z,1.48
2023-02-28T02:32:36.581Z,1.48
2023-02-28T02:33:38.263Z,1.48
2023-02-28T02:34:27.848Z,1.48
2023-02-28T02:35:57.449Z,1.48
2023-02-28T02:36:37.179Z,1.48
2023-02-28T02:37:17.547Z,1.50
2023-02-28T02:38:01.833Z,1.49
2023-02-28T02:38:43.275Z,1.50
2023-02-28T02:39:33.195Z,1.50
2023-02-28T02:40:15.374Z,1.50
2023-02-28T02:41:20.443Z,1.52
2023-02-28T02:41:57.058Z,1.52
2023-02-28T02:43:03.744Z,1.53
2023-02-28T02:44:21.712Z,1.54
2023-02-28T02:45:03.965Z,1.53
2023-02-28T02:45:41.162Z,1.53
2023-02-28T02:46:21.582Z,1.54
2023-02-28T02:46:59.371Z,1.54
2023-02-28T02:47:34.708Z,1.54
2023-02-28T02:48:12.423Z,1.54
2023-02-28T02:48:47.187Z,1.53
2023-02-28T02:49:33.387Z,1.56
2023-02-28T02:50:10.005Z,1.56
2023-02-28T02:50:47.741Z,1.51
2023-02-28T02:51:23.209Z,1.52
2023-02-28T02:51:57.607Z,1.57
2023-02-28T02:52:36.284Z,1.55
2023-02-28T02:53:14.140Z,1.56
2023-02-28T02:53:54.630Z,1.58
2023-02-28T02:54:32.548Z,1.53
2023-02-28T02:55:07.668Z,1.55
2023-02-28T02:55:44.883Z,1.57
2023-02-28T02:56:20.614Z,1.56
2023-02-28T02:56:53.318Z,1.57
2023-02-28T02:57:33.991Z,1.57
2023-02-28T02:58:09.383Z,1.57
2023-02-28T02:58:44.534Z,1.60
2023-02-28T02:59:22.227Z,1.60
2023-02-28T02:59:57.104Z,1.60
2023-02-28T03:00:35.903Z,1.60
2023-02-28T03:01:10.745Z,1.59
2023-02-28T03:01:42.747Z,1.60
2023-02-28T03:02:16.615Z,1.64
2023-02-28T03:02:53.214Z,1.64
2023-02-28T03:03:29.785Z,1.63
2023-02-28T03:04:06.879Z,1.60
2023-02-28T03:04:47.062Z,1.64
2023-02-28T03:05:30.069Z,1.61
2023-02-28T03:06:02.632Z,1.62
2023-02-28T03:06:34.544Z,1.60
2023-02-28T03:07:08.556Z,1.65
2023-02-28T03:07:40.024Z,1.61
2023-02-28T03:08:12.306Z,1.62
2023-02-28T03:08:46.936Z,1.61
2023-02-28T03:09:20.181Z,1.65
2023-02-28T03:09:53.816Z,1.66
2023-02-28T03:10:52.485Z,1.69
2023-02-28T03:11:24.609Z,1.66
2023-02-28T03:11:57.425Z,1.68
2023-02-28T03:12:40.972Z,1.64
2023-02-28T03:13:27.392Z,1.71
2023-02-28T03:14:27.115Z,1.71
2023-02-28T03:15:13.008Z,1.72
2023-02-28T03:16:02.603Z,1.72
2023-02-28T03:16:55.772Z,1.73
2023-02-28T03:17:50.709Z,1.73
2023-02-28T03:18:48.384Z,1.73
2023-02-28T03:19:19.679Z,1.73
2023-02-28T03:20:08.461Z,1.72
2023-02-28T03:20:57.391Z,1.72
2023-02-28T03:21:37.119Z,1.72
2023-02-28T03:22:15.598Z,1.73
2023-02-28T03:22:58.139Z,1.73
2023-02-28T03:23:59.482Z,1.74
2023-02-28T03:24:41.521Z,1.72
2023-02-28T03:25:31.099Z,1.72
2023-02-28T03:26:11.710Z,1.72
2023-02-28T03:26:51.794Z,1.73
2023-02-28T03:27:36.056Z,1.75
2023-02-28T03:28:16.906Z,1.74
2023-02-28T03:29:11.290Z,1.71
2023-02-28T03:29:58.901Z,1.70
2023-02-28T03:30:35.726Z,1.71
2023-02-28T03:31:14.366Z,1.75
2023-02-28T03:31:56.284Z,1.73
2023-02-28T03:32:37.354Z,1.76
2023-02-28T03:33:08.798Z,1.76
2023-02-28T03:33:55.749Z,1.73
2023-02-28T03:34:43.240Z,1.74
2023-02-28T03:35:23.061Z,1.72
2023-02-28T03:36:00.312Z,1.72
2023-02-28T03:36:44.941Z,1.72
2023-02-28T03:37:23.519Z,1.70
2023-02-28T03:38:06.530Z,1.73
2023-02-28T03:38:44.158Z,1.72
2023-02-28T03:39:21.172Z,1.69
2023-02-28T03:40:05.782Z,1.70
2023-02-28T03:40:42.961Z,1.77
2023-02-28T03:41:22.075Z,1.77
2023-02-28T03:42:01.707Z,1.73
2023-02-28T03:42:37.671Z,1.73
2023-02-28T03:43:14.642Z,1.77
2023-02-28T03:43:54.223Z,1.72
2023-02-28T03:44:33.027Z,1.72
2023-02-28T03:45:14.370Z,1.71
2023-02-28T03:45:48.717Z,1.70
2023-02-28T03:46:27.536Z,1.77
2023-02-28T03:47:04.865Z,1.74
2023-02-28T03:47:49.341Z,1.74
2023-02-28T03:48:32.771Z,1.72
2023-02-28T03:49:22.933Z,1.77
2023-02-28T03:50:09.232Z,1.78
2023-02-28T03:50:43.637Z,1.76
2023-02-28T03:51:20.455Z,1.73
2023-02-28T03:51:56.606Z,1.70
2023-02-28T03:52:34.902Z,1.72
2023-02-28T03:53:22.547Z,1.69
2023-02-28T03:54:07.601Z,1.70
2023-02-28T03:54:49.833Z,1.68
2023-02-28T03:55:22.088Z,1.66
2023-02-28T03:56:04.023Z,1.70
2023-02-28T03:56:42.695Z,1.67
2023-02-28T03:57:27.014Z,1.72
2023-02-28T03:58:33.190Z,1.67
2023-02-28T03:59:26.925Z,1.73
2023-02-28T04:00:06.768Z,1.72
2023-02-28T04:00:45.950Z,1.72
2023-02-28T04:01:33.666Z,1.73
2023-02-28T04:02:05.346Z,1.73
2023-02-28T04:02:36.772Z,1.73
2023-02-28T04:03:08.245Z,1.74
2023-02-28T04:03:40.429Z,1.74
2023-02-28T04:04:13.742Z,1.70
2023-02-28T04:04:46.116Z,1.70
2023-02-28T04:05:19.045Z,1.69
2023-02-28T04:05:55.907Z,1.72
2023-02-28T04:06:30.136Z,1.72
2023-02-28T04:07:09.871Z,1.72
2023-02-28T04:07:44.466Z,1.75
2023-02-28T04:08:17.905Z,1.73
2023-02-28T04:08:49.840Z,1.70
2023-02-28T04:09:24.477Z,1.69
2023-02-28T04:09:55.944Z,1.68
2023-02-28T04:10:27.733Z,1.66
2023-02-28T04:11:07.684Z,1.70
2023-02-28T04:11:45.132Z,1.68
2023-02-28T04:12:16.575Z,1.66
2023-02-28T04:12:48.032Z,1.66
2023-02-28T04:13:19.588Z,1.69
2023-02-28T04:13:51.054Z,1.71
2023-02-28T04:14:26.391Z,1.68
2023-02-28T04:14:59.780Z,1.69
2023-02-28T04:15:31.334Z,1.67
2023-02-28T04:16:02.848Z,1.67
2023-02-28T04:16:36.544Z,1.63
2023-02-28T04:17:08.248Z,1.63
2023-02-28T04:17:39.791Z,1.62
2023-02-28T04:18:13.654Z,1.62
2023-02-28T04:18:45.100Z,1.62
2023-02-28T04:19:16.566Z,1.62
2023-02-28T04:19:51.051Z,1.61
2023-02-28T04:20:22.583Z,1.62
2023-02-28T04:20:56.046Z,1.62
2023-02-28T04:21:27.998Z,1.65
2023-02-28T04:21:59.718Z,1.64
2023-02-28T04:22:31.342Z,1.66
2023-02-28T04:23:05.311Z,1.64
2023-02-28T04:23:37.970Z,1.64
2023-02-28T04:24:15.813Z,1.61
2023-02-28T04:24:47.188Z,1.64
2023-02-28T04:25:18.614Z,1.61
2023-02-28T04:25:56.349Z,1.61
2023-02-28T04:26:50.236Z,1.65
2023-02-28T04:27:22.451Z,1.62
2023-02-28T04:27:55.904Z,1.61
2023-02-28T04:28:27.461Z,1.62
2023-02-28T04:29:02.051Z,1.62
2023-02-28T04:29:33.859Z,1.64
2023-02-28T04:30:08.705Z,1.60
2023-02-28T04:30:40.272Z,1.59
2023-02-28T04:31:11.845Z,1.58
2023-02-28T04:31:43.428Z,1.62
2023-02-28T04:32:17.593Z,1.60
2023-02-28T04:32:51.314Z,1.59
2023-02-28T04:33:24.443Z,1.58
2023-02-28T04:33:56.197Z,1.56
2023-02-28T04:34:28.967Z,1.56
2023-02-28T04:35:00.454Z,1.60
2023-02-28T04:35:31.885Z,1.62
2023-02-28T04:36:06.506Z,1.62
2023-02-28T04:36:38.075Z,1.61
2023-02-28T04:37:14.000Z,1.55
2023-02-28T04:37:45.569Z,1.57
2023-02-28T04:38:17.537Z,1.51
2023-02-28T04:38:48.992Z,1.54
2023-02-28T04:39:23.406Z,1.52
2023-02-28T04:39:57.142Z,1.49
2023-02-28T04:40:28.743Z,1.48
2023-02-28T04:41:00.827Z,1.52
2023-02-28T04:41:35.092Z,1.54
2023-02-28T04:42:07.668Z,1.55
2023-02-28T04:42:41.479Z,1.53
2023-02-28T04:43:14.411Z,1.54
2023-02-28T04:43:45.834Z,1.52
2023-02-28T04:44:18.118Z,1.52
2023-02-28T04:44:49.499Z,1.54
2023-02-28T04:45:21.021Z,1.50
2023-02-28T04:46:00.126Z,1.48
2023-02-28T04:46:31.792Z,1.54
2023-02-28T04:47:06.171Z,1.48
2023-02-28T04:47:37.933Z,1.51
2023-02-28T04:48:09.413Z,1.47
2023-02-28T04:48:41.526Z,1.46
2023-02-28T04:49:13.928Z,1.52
2023-02-28T04:49:45.468Z,1.43
2023-02-28T04:50:17.011Z,1.48
2023-02-28T04:50:48.727Z,1.43
2023-02-28T04:51:23.159Z,1.47
2023-02-28T04:51:57.094Z,1.42
2023-02-28T04:52:31.646Z,1.43
2023-02-28T04:53:03.061Z,1.40
2023-02-28T04:53:35.726Z,1.45
2023-02-28T04:54:09.716Z,1.41
2023-02-28T04:54:43.478Z,1.40
2023-02-28T04:55:15.058Z,1.39
2023-02-28T04:55:46.884Z,1.40
2023-02-28T04:56:19.011Z,1.43
2023-02-28T04:56:50.891Z,1.42
2023-02-28T04:57:22.431Z,1.40
2023-02-28T04:57:56.389Z,1.37
2023-02-28T04:58:31.090Z,1.34
2023-02-28T04:59:04.086Z,1.39
2023-02-28T04:59:37.914Z,1.34
2023-02-28T05:00:12.561Z,1.38
2023-02-28T05:00:44.021Z,1.39
2023-02-28T05:01:33.935Z,1.41
2023-02-28T05:02:07.905Z,1.41
2023-02-28T05:02:40.602Z,1.41
2023-02-28T05:03:12.036Z,1.42
2023-02-28T05:03:44.505Z,1.41
2023-02-28T05:04:16.111Z,1.38
2023-02-28T05:04:47.608Z,1.44
2023-02-28T05:05:19.505Z,1.39
2023-02-28T05:05:53.410Z,1.43
2023-02-28T05:06:27.066Z,1.41
2023-02-28T05:06:58.523Z,1.42
2023-02-28T05:07:30.183Z,1.42
2023-02-28T05:08:01.649Z,1.41
2023-02-28T05:08:33.143Z,1.42
2023-02-28T05:09:04.569Z,1.43
2023-02-28T05:09:36.191Z,1.36
2023-02-28T05:10:10.351Z,1.37
2023-02-28T05:10:41.768Z,1.40
2023-02-28T05:11:26.566Z,1.39
2023-02-28T05:11:59.948Z,1.37
2023-02-28T05:12:31.427Z,1.34
2023-02-28T05:13:02.950Z,1.35
2023-02-28T05:13:36.001Z,1.29
2023-02-28T05:14:12.036Z,1.33
2023-02-28T05:14:45.888Z,1.26
2023-02-28T05:15:18.280Z,1.30
2023-02-28T05:15:49.798Z,1.27
2023-02-28T05:16:21.292Z,1.28
2023-02-28T05:16:55.128Z,1.24
2023-02-28T05:17:28.724Z,1.24
2023-02-28T05:18:00.151Z,1.22
2023-02-28T05:18:31.634Z,1.23
2023-02-28T05:19:06.120Z,1.24
2023-02-28T05:19:37.606Z,1.24
2023-02-28T05:20:15.729Z,1.25
2023-02-28T05:20:47.757Z,1.25
2023-02-28T05:21:27.276Z,1.22
2023-02-28T05:22:00.508Z,1.28
2023-02-28T05:22:33.712Z,1.23
2023-02-28T05:23:07.542Z,1.26
2023-02-28T05:23:39.001Z,1.21
2023-02-28T05:24:12.993Z,1.24
2023-02-28T05:24:47.229Z,1.24
2023-02-28T05:25:23.547Z,1.21
2023-02-28T05:25:57.149Z,1.20
2023-02-28T05:26:29.250Z,1.22
2023-02-28T05:27:00.996Z,1.19
2023-02-28T05:27:32.494Z,1.19
2023-02-28T05:28:04.177Z,1.20
2023-02-28T05:28:38.863Z,1.16
2023-02-28T05:29:11.203Z,1.16
2023-02-28T05:29:46.394Z,1.20
2023-02-28T05:30:18.148Z,1.23
2023-02-28T05:30:49.664Z,1.22
2023-02-28T05:31:24.527Z,1.23
2023-02-28T05:31:59.896Z,1.21
2023-02-28T05:32:31.464Z,1.19
2023-02-28T05:33:03.072Z,1.21
2023-02-28T05:33:36.820Z,1.24
2023-02-28T05:34:08.222Z,1.25
2023-02-28T05:34:42.163Z,1.23
2023-02-28T05:35:13.733Z,1.28
2023-02-28T05:35:47.902Z,1.26
2023-02-28T05:36:22.174Z,1.24
2023-02-28T05:36:55.844Z,1.23
2023-02-28T05:37:27.326Z,1.27
2023-02-28T05:37:58.848Z,1.24
2023-02-28T05:38:32.695Z,1.23
2023-02-28T05:39:07.049Z,1.26
2023-02-28T05:39:42.185Z,1.26
2023-02-28T05:40:13.763Z,1.27
2023-02-28T05:40:45.273Z,1.26
2023-02-28T05:41:17.707Z,1.22
2023-02-28T05:41:49.143Z,1.25
2023-02-28T05:42:22.484Z,1.25
2023-02-28T05:42:54.658Z,1.25
2023-02-28T05:43:26.284Z,1.22
2023-02-28T05:43:58.933Z,1.28
2023-02-28T05:44:30.594Z,1.26
2023-02-28T05:45:02.146Z,1.27
2023-02-28T05:45:33.740Z,1.21
2023-02-28T05:46:09.552Z,1.25
2023-02-28T05:46:43.553Z,1.20
2023-02-28T05:47:17.600Z,1.23
2023-02-28T05:47:49.008Z,1.25
2023-02-28T05:48:22.667Z,1.24
2023-02-28T05:48:56.619Z,1.21
2023-02-28T05:49:28.187Z,1.21
2023-02-28T05:50:02.630Z,1.23
2023-02-28T05:50:34.103Z,1.20
2023-02-28T05:51:06.312Z,1.16
2023-02-28T05:51:40.580Z,1.21
2023-02-28T05:52:11.980Z,1.22
2023-02-28T05:52:43.434Z,1.21
2023-02-28T05:53:14.934Z,1.17
2023-02-28T05:53:49.206Z,1.16
2023-02-28T05:54:20.727Z,1.18
2023-02-28T05:54:52.241Z,1.17
2023-02-28T05:55:23.800Z,1.19
2023-02-28T05:55:55.300Z,1.19
2023-02-28T05:56:26.792Z,1.18
2023-02-28T05:56:58.219Z,1.16
2023-02-28T05:57:30.680Z,1.16
2023-02-28T05:58:02.281Z,1.18
2023-02-28T05:58:34.435Z,1.14
2023-02-28T05:59:08.932Z,1.17
2023-02-28T05:59:40.867Z,1.17
2023-02-28T06:00:16.657Z,1.16
2023-02-28T06:00:49.171Z,1.18
2023-02-28T06:01:39.653Z,1.16
2023-02-28T06:02:16.490Z,1.15
2023-02-28T06:02:48.316Z,1.14
2023-02-28T06:03:19.718Z,1.17
2023-02-28T06:03:53.029Z,1.17
2023-02-28T06:04:31.945Z,1.17
2023-02-28T06:05:03.712Z,1.16
2023-02-28T06:05:35.163Z,1.16
2023-02-28T06:06:08.292Z,1.13
2023-02-28T06:06:40.277Z,1.11
2023-02-28T06:07:11.911Z,1.12
2023-02-28T06:07:46.115Z,1.12
2023-02-28T06:08:17.618Z,1.10
2023-02-28T06:08:49.124Z,1.12
2023-02-28T06:09:21.272Z,1.09
2023-02-28T06:09:55.815Z,1.11
2023-02-28T06:10:29.218Z,1.08
2023-02-28T06:11:07.816Z,1.12
2023-02-28T06:11:40.778Z,1.10
2023-02-28T06:12:12.324Z,1.11
2023-02-28T06:12:43.851Z,1.09
2023-02-28T06:13:16.323Z,1.07
2023-02-28T06:13:48.104Z,1.08
2023-02-28T06:14:20.619Z,1.12
2023-02-28T06:14:52.164Z,1.08
2023-02-28T06:15:23.834Z,1.10
2023-02-28T06:16:03.056Z,1.11
2023-02-28T06:16:39.721Z,1.06
2023-02-28T06:17:11.248Z,1.12
2023-02-28T06:17:46.033Z,1.11
2023-02-28T06:18:17.507Z,1.10
2023-02-28T06:18:56.928Z,1.06
2023-02-28T06:19:28.697Z,1.08
2023-02-28T06:20:00.319Z,1.08
2023-02-28T06:20:31.884Z,1.07
2023-02-28T06:21:05.912Z,1.04
2023-02-28T06:21:40.281Z,1.08
2023-02-28T06:22:13.282Z,1.08
2023-02-28T06:22:44.730Z,1.04
2023-02-28T06:23:16.250Z,1.05
2023-02-28T06:23:47.703Z,1.07
2023-02-28T06:24:24.889Z,1.07
2023-02-28T06:24:57.951Z,1.08
2023-02-28T06:25:29.459Z,1.04
2023-02-28T06:26:00.901Z,1.07
2023-02-28T06:26:35.296Z,1.05
2023-02-28T06:27:06.850Z,1.04
2023-02-28T06:27:41.936Z,1.11
2023-02-28T06:28:15.799Z,1.04
2023-02-28T06:28:50.834Z,1.08
2023-02-28T06:29:22.588Z,1.10
2023-02-28T06:29:56.803Z,1.08
2023-02-28T06:30:32.138Z,1.08
2023-02-28T06:31:09.588Z,1.10
2023-02-28T06:31:41.238Z,1.11
2023-02-28T06:32:12.803Z,1.11
2023-02-28T06:32:44.489Z,1.10
2023-02-28T06:33:18.894Z,1.13
2023-02-28T06:33:51.089Z,1.06
2023-02-28T06:34:22.720Z,1.13
2023-02-28T06:34:58.493Z,1.11
2023-02-28T06:35:30.506Z,1.14
2023-02-28T06:36:05.762Z,1.12
2023-02-28T06:36:37.257Z,1.12
2023-02-28T06:37:08.763Z,1.07
2023-02-28T06:37:41.771Z,1.07
2023-02-28T06:38:13.396Z,1.05
2023-02-28T06:38:52.278Z,1.07
2023-02-28T06:39:23.781Z,1.04
2023-02-28T06:39:57.375Z,1.07
2023-02-28T06:40:29.005Z,1.06
2023-02-28T06:41:03.560Z,1.04
2023-02-28T06:41:53.604Z,1.07
2023-02-28T06:42:29.754Z,1.08
2023-02-28T06:43:06.261Z,1.10
2023-02-28T06:43:42.034Z,1.09
2023-02-28T06:44:16.178Z,1.08
2023-02-28T06:44:50.220Z,1.03
2023-02-28T06:45:21.654Z,1.08
2023-02-28T06:45:57.017Z,1.07
2023-02-28T06:46:28.527Z,1.03
2023-02-28T06:47:04.691Z,1.04
2023-02-28T06:47:41.231Z,1.10
2023-02-28T06:48:12.742Z,1.03
2023-02-28T06:48:45.237Z,1.03
2023-02-28T06:49:17.260Z,1.08
2023-02-28T06:49:48.911Z,1.05
2023-02-28T06:50:21.410Z,1.05
2023-02-28T06:50:55.826Z,1.07
2023-02-28T06:51:28.232Z,1.04
2023-02-28T06:51:59.878Z,1.07
2023-02-28T06:52:34.405Z,1.04
2023-02-28T06:53:05.924Z,1.03
2023-02-28T06:53:38.101Z,1.03
2023-02-28T06:54:09.931Z,1.09
2023-02-28T06:54:41.457Z,1.05
2023-02-28T06:55:13.827Z,1.06
2023-02-28T06:55:45.235Z,1.14
2023-02-28T06:56:18.425Z,1.12
2023-02-28T06:56:49.963Z,1.14
2023-02-28T06:57:25.967Z,1.14
2023-02-28T06:57:58.359Z,1.14
2023-02-28T06:58:32.039Z,1.15
2023-02-28T06:59:05.788Z,1.14
2023-02-28T06:59:37.531Z,1.16
2023-02-28T07:00:10.176Z,1.16
2023-02-28T07:00:45.582Z,1.15
2023-02-28T07:01:17.751Z,1.14
2023-02-28T07:01:49.235Z,1.18
2023-02-28T07:02:20.704Z,1.17
2023-02-28T07:02:52.162Z,1.14
2023-02-28T07:03:24.154Z,1.17
2023-02-28T07:03:55.937Z,1.18
2023-02-28T07:04:27.493Z,1.15
2023-02-28T07:05:03.393Z,1.17
2023-02-28T07:05:38.463Z,1.16
2023-02-28T07:06:09.942Z,1.13
2023-02-28T07:06:45.934Z,1.19
2023-02-28T07:07:17.399Z,1.18
2023-02-28T07:07:50.044Z,1.14
2023-02-28T07:08:21.506Z,1.15
2023-02-28T07:08:54.439Z,1.20
2023-02-28T07:09:30.593Z,1.17
2023-02-28T07:10:02.153Z,1.15
2023-02-28T07:10:34.345Z,1.20
2023-02-28T07:11:12.856Z,1.20
2023-02-28T07:11:47.205Z,1.19
2023-02-28T07:12:18.752Z,1.18
2023-02-28T07:12:50.386Z,1.19
2023-02-28T07:13:24.891Z,1.21
2023-02-28T07:13:57.385Z,1.20
2023-02-28T07:14:28.929Z,1.19
2023-02-28T07:15:02.468Z,1.21
2023-02-28T07:15:33.970Z,1.18
2023-02-28T07:16:08.624Z,1.23
2023-02-28T07:16:41.671Z,1.21
2023-02-28T07:17:13.250Z,1.20
2023-02-28T07:17:47.392Z,1.19
2023-02-28T07:18:22.273Z,1.20
2023-02-28T07:18:54.828Z,1.26
2023-02-28T07:19:26.386Z,1.25
2023-02-28T07:20:00.369Z,1.23
2023-02-28T07:20:34.490Z,1.23
2023-02-28T07:21:08.372Z,1.24
2023-02-28T07:21:45.659Z,1.26
2023-02-28T07:22:17.206Z,1.28
2023-02-28T07:22:55.985Z,1.25
2023-02-28T07:23:27.572Z,1.26
2023-02-28T07:24:01.250Z,1.26
2023-02-28T07:24:35.700Z,1.26
2023-02-28T07:25:07.591Z,1.25
2023-02-28T07:25:38.999Z,1.28
2023-02-28T07:26:15.672Z,1.24
2023-02-28T07:26:47.178Z,1.23
2023-02-28T07:27:26.200Z,1.25
2023-02-28T07:27:57.921Z,1.29
2023-02-28T07:28:30.050Z,1.28
2023-02-28T07:29:01.700Z,1.28
2023-02-28T07:29:33.174Z,1.25
2023-02-28T07:30:05.994Z,1.29
2023-02-28T07:30:37.412Z,1.26
2023-02-28T07:31:10.383Z,1.30
2023-02-28T07:31:43.123Z,1.31
2023-02-28T07:32:14.629Z,1.29
2023-02-28T07:32:46.299Z,1.28
2023-02-28T07:33:17.821Z,1.28
2023-02-28T07:33:49.268Z,1.26
2023-02-28T07:34:27.465Z,1.25
2023-02-28T07:34:58.988Z,1.31
2023-02-28T07:35:31.283Z,1.27
2023-02-28T07:36:07.343Z,1.31
2023-02-28T07:36:38.911Z,1.26
2023-02-28T07:37:10.403Z,1.26
2023-02-28T07:37:43.016Z,1.28
2023-02-28T07:38:14.794Z,1.28
2023-02-28T07:38:49.137Z,1.27
2023-02-28T07:39:22.135Z,1.27
2023-02-28T07:39:53.585Z,1.25
2023-02-28T07:40:25.638Z,1.31
2023-02-28T07:40:57.118Z,1.28
2023-02-28T07:41:31.060Z,1.27
2023-02-28T07:42:07.152Z,1.32
2023-02-28T07:42:39.751Z,1.32
2023-02-28T07:43:11.340Z,1.30
2023-02-28T07:43:42.810Z,1.32
2023-02-28T07:44:15.315Z,1.27
2023-02-28T07:44:47.384Z,1.31
2023-02-28T07:45:19.278Z,1.29
2023-02-28T07:45:50.821Z,1.24
2023-02-28T07:46:22.846Z,1.26
2023-02-28T07:46:54.393Z,1.22
2023-02-28T07:47:26.137Z,1.27
2023-02-28T07:47:57.643Z,1.23
2023-02-28T07:48:29.130Z,1.25
2023-02-28T07:49:01.048Z,1.25
2023-02-28T07:49:33.102Z,1.25
2023-02-28T07:50:04.851Z,1.28
2023-02-28T07:50:36.243Z,1.27